sensor_id;sensor_type;location;lat;lon;timestamp;pressure;altitude;pressure_sealevel;temperature;humidity
30967;BME280;17649;51.836;8.330;2022-10-17T00:01:55;101294.81;;;13.80;nan
30967;BME280;17649;51.836;8.330;2022-10-17T00:04:55;101292.31;;;13.78;nan
30967;BME280;17649;51.836;8.330;2022-10-17T00:07:55;101298.34;;;13.79;nan
30967;BME280;17649;51.836;8.330;2022-10-17T00:10:59;101301.22;;;13.74;nan
30967;BME280;17649;51.836;8.330;2022-10-17T00:14:00;101309.31;;;13.69;nan
30967;BME280;17649;51.836;8.330;2022-10-17T00:17:01;101304.84;;;13.71;nan
30967;BME280;17649;51.836;8.330;2022-10-17T00:20:01;101304.84;;;13.71;nan
30967;BME280;17649;51.836;8.330;2022-10-17T00:23:01;101306.44;;;13.74;nan
30967;BME280;17649;51.836;8.330;2022-10-17T00:26:03;101305.59;;;13.73;nan
30967;BME280;17649;51.836;8.330;2022-10-17T00:29:03;101309.88;;;13.75;nan
30967;BME280;17649;51.836;8.330;2022-10-17T00:32:03;101308.94;;;13.76;nan
30967;BME280;17649;51.836;8.330;2022-10-17T00:35:04;101304.56;;;13.76;nan
30967;BME280;17649;51.836;8.330;2022-10-17T00:38:04;101301.03;;;13.77;nan
30967;BME280;17649;51.836;8.330;2022-10-17T00:41:04;101301.78;;;13.79;nan
30967;BME280;17649;51.836;8.330;2022-10-17T00:47:24;101300.94;;;13.79;nan
30967;BME280;17649;51.836;8.330;2022-10-17T00:50:25;101300.03;;;13.80;nan
30967;BME280;17649;51.836;8.330;2022-10-17T00:53:26;101302.81;;;13.77;nan
30967;BME280;17649;51.836;8.330;2022-10-17T00:56:26;101302.16;;;13.73;nan
30967;BME280;17649;51.836;8.330;2022-10-17T00:59:26;101298.91;;;13.69;nan
30967;BME280;17649;51.836;8.330;2022-10-17T01:02:27;101299.88;;;13.67;nan
30967;BME280;17649;51.836;8.330;2022-10-17T01:05:27;101299.22;;;13.63;nan
30967;BME280;17649;51.836;8.330;2022-10-17T01:08:28;101298.56;;;13.60;nan
30967;BME280;17649;51.836;8.330;2022-10-17T01:11:31;101297.84;;;13.58;nan
30967;BME280;17649;51.836;8.330;2022-10-17T01:14:41;101291.88;;;13.56;nan
30967;BME280;17649;51.836;8.330;2022-10-17T01:20:52;101286.78;;;13.54;nan
30967;BME280;17649;51.836;8.330;2022-10-17T01:33:36;101294.63;;;13.53;nan
30967;BME280;17649;51.836;8.330;2022-10-17T01:36:46;101292.03;;;13.53;nan
30967;BME280;17649;51.836;8.330;2022-10-17T01:39:57;101284.22;;;13.53;nan
30967;BME280;17649;51.836;8.330;2022-10-17T01:43:04;101288.50;;;13.54;nan
30967;BME280;17649;51.836;8.330;2022-10-17T01:46:11;101284.19;;;13.54;nan
30967;BME280;17649;51.836;8.330;2022-10-17T01:49:12;101281.63;;;13.53;nan
30967;BME280;17649;51.836;8.330;2022-10-17T01:52:17;101279.03;;;13.53;nan
30967;BME280;17649;51.836;8.330;2022-10-17T01:55:22;101279.63;;;13.58;nan
30967;BME280;17649;51.836;8.330;2022-10-17T01:58:47;101276.09;;;13.59;nan
30967;BME280;17649;51.836;8.330;2022-10-17T02:01:46;101272.56;;;13.60;nan
30967;BME280;17649;51.836;8.330;2022-10-17T02:04:47;101269.78;;;13.63;nan
30967;BME280;17649;51.836;8.330;2022-10-17T02:07:49;101258.47;;;13.64;nan
30967;BME280;17649;51.836;8.330;2022-10-17T02:11:03;101254.00;;;13.66;nan
30967;BME280;17649;51.836;8.330;2022-10-17T02:26:59;101236.91;;;13.62;nan
30967;BME280;17649;51.836;8.330;2022-10-17T02:29:54;101249.91;;;13.62;nan
30967;BME280;17649;51.836;8.330;2022-10-17T02:33:12;101248.25;;;13.61;nan
30967;BME280;17649;51.836;8.330;2022-10-17T02:36:16;101248.25;;;13.61;nan
30967;BME280;17649;51.836;8.330;2022-10-17T02:39:19;101246.47;;;13.61;nan
30967;BME280;17649;51.836;8.330;2022-10-17T02:42:19;101246.38;;;13.63;nan
30967;BME280;17649;51.836;8.330;2022-10-17T02:45:20;101247.31;;;13.62;nan
30967;BME280;17649;51.836;8.330;2022-10-17T02:48:25;101251.69;;;13.61;nan
30967;BME280;17649;51.836;8.330;2022-10-17T02:51:28;101254.28;;;13.61;nan
30967;BME280;17649;51.836;8.330;2022-10-17T02:54:34;101253.44;;;13.61;nan
30967;BME280;17649;51.836;8.330;2022-10-17T02:57:40;101261.16;;;13.62;nan
30967;BME280;17649;51.836;8.330;2022-10-17T03:00:43;101255.03;;;13.63;nan
30967;BME280;17649;51.836;8.330;2022-10-17T03:03:43;101249.91;;;13.62;nan
30967;BME280;17649;51.836;8.330;2022-10-17T03:06:44;101249.19;;;13.60;nan
30967;BME280;17649;51.836;8.330;2022-10-17T03:09:45;101250.09;;;13.59;nan
30967;BME280;17649;51.836;8.330;2022-10-17T03:12:45;101249.25;;;13.58;nan
30967;BME280;17649;51.836;8.330;2022-10-17T03:15:46;101244.06;;;13.58;nan
30967;BME280;17649;51.836;8.330;2022-10-17T03:18:46;101254.56;;;13.57;nan
30967;BME280;17649;51.836;8.330;2022-10-17T03:21:46;101251.97;;;13.57;nan
30967;BME280;17649;51.836;8.330;2022-10-17T03:24:47;101246.75;;;13.57;nan
30967;BME280;17649;51.836;8.330;2022-10-17T03:27:47;101247.59;;;13.57;nan
30967;BME280;17649;51.836;8.330;2022-10-17T03:30:47;101245.09;;;13.56;nan
30967;BME280;17649;51.836;8.330;2022-10-17T03:33:47;101253.81;;;13.55;nan
30967;BME280;17649;51.836;8.330;2022-10-17T03:36:48;101262.34;;;13.57;nan
30967;BME280;17649;51.836;8.330;2022-10-17T03:39:48;101258.81;;;13.58;nan
30967;BME280;17649;51.836;8.330;2022-10-17T03:42:48;101257.81;;;13.60;nan
30967;BME280;17649;51.836;8.330;2022-10-17T03:45:48;101260.31;;;13.62;nan
30967;BME280;17649;51.836;8.330;2022-10-17T03:48:49;101255.13;;;13.62;nan
30967;BME280;17649;51.836;8.330;2022-10-17T03:51:49;101250.00;;;13.60;nan
30967;BME280;17649;51.836;8.330;2022-10-17T03:54:49;101256.13;;;13.59;nan
30967;BME280;17649;51.836;8.330;2022-10-17T03:57:50;101256.31;;;13.56;nan
30967;BME280;17649;51.836;8.330;2022-10-17T04:00:50;101256.56;;;13.52;nan
30967;BME280;17649;51.836;8.330;2022-10-17T04:03:52;101251.53;;;13.49;nan
30967;BME280;17649;51.836;8.330;2022-10-17T04:06:52;101250.06;;;13.45;nan
30967;BME280;17649;51.836;8.330;2022-10-17T04:09:52;101254.50;;;13.42;nan
30967;BME280;17649;51.836;8.330;2022-10-17T04:12:53;101251.81;;;13.44;nan
30967;BME280;17649;51.836;8.330;2022-10-17T04:15:54;101255.16;;;13.46;nan
30967;BME280;17649;51.836;8.330;2022-10-17T04:18:55;101254.50;;;13.42;nan
30967;BME280;17649;51.836;8.330;2022-10-17T04:21:56;101259.00;;;13.39;nan
30967;BME280;17649;51.836;8.330;2022-10-17T04:24:56;101267.75;;;13.38;nan
30967;BME280;17649;51.836;8.330;2022-10-17T04:27:56;101267.75;;;13.38;nan
30967;BME280;17649;51.836;8.330;2022-10-17T04:30:57;101257.44;;;13.36;nan
30967;BME280;17649;51.836;8.330;2022-10-17T04:33:58;101262.72;;;13.35;nan
30967;BME280;17649;51.836;8.330;2022-10-17T04:36:58;101268.84;;;13.34;nan
30967;BME280;17649;51.836;8.330;2022-10-17T04:39:58;101274.31;;;13.29;nan
30967;BME280;17649;51.836;8.330;2022-10-17T04:42:59;101275.25;;;13.28;nan
30967;BME280;17649;51.836;8.330;2022-10-17T04:46:00;101277.19;;;13.25;nan
30967;BME280;17649;51.836;8.330;2022-10-17T04:49:00;101285.03;;;13.23;nan
30967;BME280;17649;51.836;8.330;2022-10-17T04:52:01;101283.25;;;13.24;nan
30967;BME280;17649;51.836;8.330;2022-10-17T04:55:01;101277.31;;;13.22;nan
30967;BME280;17649;51.836;8.330;2022-10-17T04:58:01;101292.81;;;13.23;nan
30967;BME280;17649;51.836;8.330;2022-10-17T05:01:05;101278.94;;;13.24;nan
30967;BME280;17649;51.836;8.330;2022-10-17T05:04:05;101274.56;;;13.25;nan
30967;BME280;17649;51.836;8.330;2022-10-17T05:07:06;101274.63;;;13.23;nan
30967;BME280;17649;51.836;8.330;2022-10-17T05:10:06;101279.91;;;13.22;nan
30967;BME280;17649;51.836;8.330;2022-10-17T05:13:07;101277.50;;;13.19;nan
30967;BME280;17649;51.836;8.330;2022-10-17T05:16:07;101276.88;;;13.13;nan
30967;BME280;17649;51.836;8.330;2022-10-17T05:19:07;101267.59;;;13.09;nan
30967;BME280;17649;51.836;8.330;2022-10-17T05:22:08;101271.25;;;13.05;nan
30967;BME280;17649;51.836;8.330;2022-10-17T05:25:08;101272.28;;;13.03;nan
30967;BME280;17649;51.836;8.330;2022-10-17T05:28:09;101267.91;;;13.03;nan
30967;BME280;17649;51.836;8.330;2022-10-17T05:31:09;101265.00;;;13.09;nan
30967;BME280;17649;51.836;8.330;2022-10-17T05:34:10;101259.53;;;13.14;nan
30967;BME280;17649;51.836;8.330;2022-10-17T05:37:10;101257.59;;;13.18;nan
30967;BME280;17649;51.836;8.330;2022-10-17T05:40:10;101259.22;;;13.20;nan
30967;BME280;17649;51.836;8.330;2022-10-17T05:43:11;101254.78;;;13.22;nan
30967;BME280;17649;51.836;8.330;2022-10-17T05:46:11;101258.91;;;13.26;nan
30967;BME280;17649;51.836;8.330;2022-10-17T05:49:14;101270.44;;;13.36;nan
30967;BME280;17649;51.836;8.330;2022-10-17T05:52:15;101273.78;;;13.38;nan
30967;BME280;17649;51.836;8.330;2022-10-17T05:55:15;101274.59;;;13.39;nan
30967;BME280;17649;51.836;8.330;2022-10-17T05:58:16;101281.56;;;13.38;nan
30967;BME280;17649;51.836;8.330;2022-10-17T06:01:18;101277.16;;;13.40;nan
30967;BME280;17649;51.836;8.330;2022-10-17T06:04:19;101275.72;;;13.35;nan
30967;BME280;17649;51.836;8.330;2022-10-17T06:07:20;101292.41;;;13.31;nan
30967;BME280;17649;51.836;8.330;2022-10-17T06:10:22;101293.34;;;13.30;nan
30967;BME280;17649;51.836;8.330;2022-10-17T06:13:23;101295.19;;;13.28;nan
30967;BME280;17649;51.836;8.330;2022-10-17T06:16:23;101304.84;;;13.26;nan
30967;BME280;17649;51.836;8.330;2022-10-17T06:19:23;101303.81;;;13.28;nan
30967;BME280;17649;51.836;8.330;2022-10-17T06:22:24;101314.22;;;13.28;nan
30967;BME280;17649;51.836;8.330;2022-10-17T06:25:25;101320.00;;;13.33;nan
30967;BME280;17649;51.836;8.330;2022-10-17T06:28:25;101328.63;;;13.34;nan
30967;BME280;17649;51.836;8.330;2022-10-17T06:31:25;101316.16;;;13.40;nan
30967;BME280;17649;51.836;8.330;2022-10-17T06:34:26;101335.75;;;13.46;nan
30967;BME280;17649;51.836;8.330;2022-10-17T06:37:29;101336.84;;;13.58;nan
30967;BME280;17649;51.836;8.330;2022-10-17T06:40:32;101346.56;;;13.70;nan
30967;BME280;17649;51.836;8.330;2022-10-17T06:47:32;101336.22;;;13.98;nan
30967;BME280;17649;51.836;8.330;2022-10-17T06:50:33;101352.88;;;14.10;nan
30967;BME280;17649;51.836;8.330;2022-10-17T06:53:44;101360.91;;;14.21;nan
30967;BME280;17649;51.836;8.330;2022-10-17T06:56:48;101374.97;;;14.33;nan
30967;BME280;17649;51.836;8.330;2022-10-17T06:59:48;101378.72;;;14.43;nan
30967;BME280;17649;51.836;8.330;2022-10-17T07:03:06;101374.66;;;14.53;nan
30967;BME280;17649;51.836;8.330;2022-10-17T07:06:07;101381.00;;;14.64;nan
30967;BME280;17649;51.836;8.330;2022-10-17T07:09:09;101379.78;;;14.69;nan
30967;BME280;17649;51.836;8.330;2022-10-17T07:12:16;101366.66;;;14.71;nan
30967;BME280;17649;51.836;8.330;2022-10-17T07:15:16;101380.72;;;14.82;nan
30967;BME280;17649;51.836;8.330;2022-10-17T07:18:19;101396.00;;;14.88;nan
30967;BME280;17649;51.836;8.330;2022-10-17T07:21:40;101387.63;;;14.98;nan
30967;BME280;17649;51.836;8.330;2022-10-17T07:24:46;101386.13;;;15.08;nan
30967;BME280;17649;51.836;8.330;2022-10-17T07:27:50;101391.69;;;15.16;nan
30967;BME280;17649;51.836;8.330;2022-10-17T07:31:01;101393.72;;;15.25;nan
30967;BME280;17649;51.836;8.330;2022-10-17T07:34:02;101391.50;;;15.33;nan
30967;BME280;17649;51.836;8.330;2022-10-17T07:37:06;101393.59;;;15.41;nan
30967;BME280;17649;51.836;8.330;2022-10-17T07:40:09;101400.97;;;15.48;nan
30967;BME280;17649;51.836;8.330;2022-10-17T07:43:30;101403.91;;;15.71;nan
30967;BME280;17649;51.836;8.330;2022-10-17T07:46:36;101402.19;;;15.84;nan
30967;BME280;17649;51.836;8.330;2022-10-17T07:49:53;101405.47;;;16.00;nan
30967;BME280;17649;51.836;8.330;2022-10-17T07:53:01;101408.84;;;16.15;nan
30967;BME280;17649;51.836;8.330;2022-10-17T07:56:05;101406.88;;;16.31;nan
30967;BME280;17649;51.836;8.330;2022-10-17T07:59:06;101408.91;;;16.40;nan
30967;BME280;17649;51.836;8.330;2022-10-17T08:02:27;101408.25;;;16.50;nan
30967;BME280;17649;51.836;8.330;2022-10-17T08:05:30;101408.91;;;16.53;nan
30967;BME280;17649;51.836;8.330;2022-10-17T08:11:58;101393.47;;;16.88;nan
30967;BME280;17649;51.836;8.330;2022-10-17T08:15:04;101381.59;;;17.08;nan
30967;BME280;17649;51.836;8.330;2022-10-17T08:18:07;101380.75;;;17.20;nan
30967;BME280;17649;51.836;8.330;2022-10-17T08:21:10;101390.94;;;17.36;nan
30967;BME280;17649;51.836;8.330;2022-10-17T08:24:13;101381.50;;;17.46;nan
30967;BME280;17649;51.836;8.330;2022-10-17T08:27:16;101382.94;;;17.50;nan
30967;BME280;17649;51.836;8.330;2022-10-17T08:33:59;101368.38;;;17.59;nan
30967;BME280;17649;51.836;8.330;2022-10-17T08:37:02;101362.50;;;17.68;nan
30967;BME280;17649;51.836;8.330;2022-10-17T08:40:24;101353.69;;;17.93;nan
30967;BME280;17649;51.836;8.330;2022-10-17T08:47:09;101361.78;;;18.47;nan
30967;BME280;17649;51.836;8.330;2022-10-17T08:50:36;101365.34;;;18.58;nan
30967;BME280;17649;51.836;8.330;2022-10-17T09:04:44;101361.91;;;19.13;nan
30967;BME280;17649;51.836;8.330;2022-10-17T09:11:48;101365.81;;;19.30;nan
30967;BME280;17649;51.836;8.330;2022-10-17T09:18:02;101354.31;;;19.53;nan
30967;BME280;17649;51.836;8.330;2022-10-17T09:21:48;101350.25;;;19.60;nan
30967;BME280;17649;51.836;8.330;2022-10-17T09:32:20;101323.44;;;19.78;nan
30967;BME280;17649;51.836;8.330;2022-10-17T09:50:15;101342.75;;;20.30;nan
30967;BME280;17649;51.836;8.330;2022-10-17T10:04:18;101321.75;;;21.00;nan
30967;BME280;17649;51.836;8.330;2022-10-17T10:11:54;101344.84;;;20.87;nan
30967;BME280;17649;51.836;8.330;2022-10-17T10:15:40;101344.50;;;21.21;nan
30967;BME280;17649;51.836;8.330;2022-10-17T10:22:50;101349.41;;;21.35;nan
30967;BME280;17649;51.836;8.330;2022-10-17T10:30:03;101356.88;;;21.39;nan
30967;BME280;17649;51.836;8.330;2022-10-17T10:33:40;101359.28;;;21.62;nan
30967;BME280;17649;51.836;8.330;2022-10-17T10:51:43;101385.22;;;22.71;nan
30967;BME280;17649;51.836;8.330;2022-10-17T10:54:50;101380.41;;;22.57;nan
30967;BME280;17649;51.836;8.330;2022-10-17T10:58:08;101380.47;;;22.75;nan
30967;BME280;17649;51.836;8.330;2022-10-17T11:08:17;101391.56;;;22.31;nan
30967;BME280;17649;51.836;8.330;2022-10-17T11:11:27;101398.22;;;22.16;nan
30967;BME280;17649;51.836;8.330;2022-10-17T11:18:06;101413.34;;;22.05;nan
30967;BME280;17649;51.836;8.330;2022-10-17T11:28:34;101441.50;;;21.75;nan
30967;BME280;17649;51.836;8.330;2022-10-17T11:32:03;101432.47;;;21.78;nan
30967;BME280;17649;51.836;8.330;2022-10-17T11:44:30;101446.66;;;22.15;nan
30967;BME280;17649;51.836;8.330;2022-10-17T11:47:37;101459.69;;;22.36;nan
30967;BME280;17649;51.836;8.330;2022-10-17T12:04:30;101488.22;;;21.83;nan
30967;BME280;17649;51.836;8.330;2022-10-17T12:07:33;101473.53;;;21.90;nan
30967;BME280;17649;51.836;8.330;2022-10-17T12:16:41;101474.69;;;22.36;nan
30967;BME280;17649;51.836;8.330;2022-10-17T12:19:43;101475.78;;;22.23;nan
30967;BME280;17649;51.836;8.330;2022-10-17T12:22:47;101478.44;;;22.23;nan
30967;BME280;17649;51.836;8.330;2022-10-17T12:25:52;101476.31;;;21.98;nan
30967;BME280;17649;51.836;8.330;2022-10-17T12:29:20;101478.56;;;22.22;nan
30967;BME280;17649;51.836;8.330;2022-10-17T12:32:16;101476.31;;;21.88;nan
30967;BME280;17649;51.836;8.330;2022-10-17T12:35:21;101476.50;;;21.56;nan
30967;BME280;17649;51.836;8.330;2022-10-17T12:38:24;101481.38;;;21.61;nan
30967;BME280;17649;51.836;8.330;2022-10-17T12:44:38;101482.09;;;21.82;nan
30967;BME280;17649;51.836;8.330;2022-10-17T12:47:46;101479.63;;;21.81;nan
30967;BME280;17649;51.836;8.330;2022-10-17T12:54:10;101471.41;;;21.64;nan
30967;BME280;17649;51.836;8.330;2022-10-17T13:01:08;101464.47;;;21.63;nan
30967;BME280;17649;51.836;8.330;2022-10-17T13:04:27;101477.91;;;21.60;nan
30967;BME280;17649;51.836;8.330;2022-10-17T14:31:57;101560.53;;;21.69;nan
30967;BME280;17649;51.836;8.330;2022-10-17T14:35:33;101560.56;;;21.79;nan
30967;BME280;17649;51.836;8.330;2022-10-17T16:25:37;101692.03;;;20.33;nan
30967;BME280;17649;51.836;8.330;2022-10-17T16:29:10;101692.72;;;20.35;nan
30967;BME280;17649;51.836;8.330;2022-10-17T16:32:30;101695.50;;;20.00;nan
30967;BME280;17649;51.836;8.330;2022-10-17T16:35:37;101702.72;;;19.51;nan
30967;BME280;17649;51.836;8.330;2022-10-17T16:39:03;101728.50;;;19.22;nan
30967;BME280;17649;51.836;8.330;2022-10-17T16:45:39;101764.75;;;18.81;nan
30967;BME280;17649;51.836;8.330;2022-10-17T16:48:45;101780.84;;;18.63;nan
30967;BME280;17649;51.836;8.330;2022-10-17T17:39:07;101842.69;;;18.28;nan
30967;BME280;17649;51.836;8.330;2022-10-17T17:45:33;101832.41;;;18.25;nan
30967;BME280;17649;51.836;8.330;2022-10-17T17:52:56;101833.06;;;18.15;nan
30967;BME280;17649;51.836;8.330;2022-10-17T18:30:10;101858.91;;;17.95;nan
30967;BME280;17649;51.836;8.330;2022-10-17T18:40:38;101878.88;;;17.83;nan
30967;BME280;17649;51.836;8.330;2022-10-17T19:04:18;101911.88;;;17.85;nan
30967;BME280;17649;51.836;8.330;2022-10-17T19:15:02;101909.16;;;17.87;nan
30967;BME280;17649;51.836;8.330;2022-10-17T19:18:13;101917.75;;;17.89;nan
30967;BME280;17649;51.836;8.330;2022-10-17T19:21:15;101919.03;;;17.96;nan
30967;BME280;17649;51.836;8.330;2022-10-17T19:24:22;101920.91;;;17.94;nan
30967;BME280;17649;51.836;8.330;2022-10-17T19:27:27;101921.44;;;17.99;nan
30967;BME280;17649;51.836;8.330;2022-10-17T19:30:32;101921.63;;;17.96;nan
30967;BME280;17649;51.836;8.330;2022-10-17T19:33:53;101922.16;;;17.88;nan
30967;BME280;17649;51.836;8.330;2022-10-17T19:36:59;101916.09;;;17.88;nan
30967;BME280;17649;51.836;8.330;2022-10-17T19:40:01;101910.84;;;17.88;nan
30967;BME280;17649;51.836;8.330;2022-10-17T19:43:03;101909.16;;;17.87;nan
30967;BME280;17649;51.836;8.330;2022-10-17T19:46:10;101918.75;;;17.74;nan
30967;BME280;17649;51.836;8.330;2022-10-17T19:49:12;101921.06;;;17.78;nan
30967;BME280;17649;51.836;8.330;2022-10-17T19:52:13;101927.25;;;17.77;nan
30967;BME280;17649;51.836;8.330;2022-10-17T19:55:17;101919.38;;;17.77;nan
30967;BME280;17649;51.836;8.330;2022-10-17T19:58:25;101908.19;;;17.75;nan
30967;BME280;17649;51.836;8.330;2022-10-17T20:23:50;101946.03;;;17.70;nan
30967;BME280;17649;51.836;8.330;2022-10-17T20:49:41;101967.66;;;17.59;nan
30967;BME280;17649;51.836;8.330;2022-10-17T21:32:42;102011.31;;;17.30;nan
30967;BME280;17649;51.836;8.330;2022-10-17T21:54:14;101998.25;;;17.30;nan
30967;BME280;17649;51.836;8.330;2022-10-17T22:00:51;102006.19;;;17.28;nan
30967;BME280;17649;51.836;8.330;2022-10-17T22:03:53;102003.47;;;17.30;nan
30967;BME280;17649;51.836;8.330;2022-10-17T22:06:57;102005.16;;;17.31;nan
30967;BME280;17649;51.836;8.330;2022-10-17T22:09:58;102008.91;;;17.27;nan
30967;BME280;17649;51.836;8.330;2022-10-17T22:12:59;102006.53;;;17.22;nan
30967;BME280;17649;51.836;8.330;2022-10-17T22:16:01;102014.69;;;17.18;nan
30967;BME280;17649;51.836;8.330;2022-10-17T22:19:04;102021.78;;;17.16;nan
30967;BME280;17649;51.836;8.330;2022-10-17T22:22:06;102030.47;;;17.16;nan
30967;BME280;17649;51.836;8.330;2022-10-17T22:25:16;102022.91;;;17.12;nan
30967;BME280;17649;51.836;8.330;2022-10-17T22:28:18;102024.59;;;17.13;nan
30967;BME280;17649;51.836;8.330;2022-10-17T22:31:19;102035.16;;;17.11;nan
30967;BME280;17649;51.836;8.330;2022-10-17T22:34:20;102040.06;;;17.02;nan
30967;BME280;17649;51.836;8.330;2022-10-17T22:37:21;102030.66;;;16.99;nan
30967;BME280;17649;51.836;8.330;2022-10-17T22:40:22;102045.50;;;16.98;nan
30967;BME280;17649;51.836;8.330;2022-10-17T22:43:24;102043.63;;;17.01;nan
30967;BME280;17649;51.836;8.330;2022-10-17T22:46:28;102045.31;;;17.02;nan
30967;BME280;17649;51.836;8.330;2022-10-17T22:49:33;102054.09;;;17.01;nan
30967;BME280;17649;51.836;8.330;2022-10-17T22:52:34;102053.59;;;16.94;nan
30967;BME280;17649;51.836;8.330;2022-10-17T22:55:36;102047.53;;;16.93;nan
30967;BME280;17649;51.836;8.330;2022-10-17T22:58:37;102045.66;;;16.95;nan
30967;BME280;17649;51.836;8.330;2022-10-17T23:01:38;102042.69;;;17.02;nan
30967;BME280;17649;51.836;8.330;2022-10-17T23:04:39;102047.84;;;17.03;nan
30967;BME280;17649;51.836;8.330;2022-10-17T23:07:40;102042.59;;;17.03;nan
30967;BME280;17649;51.836;8.330;2022-10-17T23:10:41;102044.38;;;17.03;nan
30967;BME280;17649;51.836;8.330;2022-10-17T23:13:42;102045.31;;;17.02;nan
30967;BME280;17649;51.836;8.330;2022-10-17T23:16:46;102041.84;;;17.01;nan
30967;BME280;17649;51.836;8.330;2022-10-17T23:19:46;102038.59;;;16.97;nan
30967;BME280;17649;51.836;8.330;2022-10-17T23:22:48;102038.75;;;16.94;nan
30967;BME280;17649;51.836;8.330;2022-10-17T23:25:49;102046.78;;;16.91;nan
30967;BME280;17649;51.836;8.330;2022-10-17T23:28:52;102051.91;;;16.93;nan
30967;BME280;17649;51.836;8.330;2022-10-17T23:31:53;102050.03;;;16.95;nan
30967;BME280;17649;51.836;8.330;2022-10-17T23:34:54;102046.44;;;16.97;nan
30967;BME280;17649;51.836;8.330;2022-10-17T23:37:54;102046.16;;;17.02;nan
30967;BME280;17649;51.836;8.330;2022-10-17T23:40:59;102043.34;;;17.05;nan
30967;BME280;17649;51.836;8.330;2022-10-17T23:44:01;102038.03;;;17.07;nan
30967;BME280;17649;51.836;8.330;2022-10-17T23:47:02;102043.25;;;17.07;nan
30967;BME280;17649;51.836;8.330;2022-10-17T23:50:05;102047.63;;;17.06;nan
30967;BME280;17649;51.836;8.330;2022-10-17T23:53:15;102046.25;;;17.01;nan
30967;BME280;17649;51.836;8.330;2022-10-17T23:56:16;102041.34;;;16.94;nan
30967;BME280;17649;51.836;8.330;2022-10-17T23:59:18;102045.94;;;16.91;nan
